Jeddo, Texas
Current Conditions -  °F | °C
As of 6:10 AM on Friday 28 Nov 2014 (Local Time) from K3T5 Reporting Station
Clear Clear  
Wind Chill: 41°   Ceiling: Unl
Heat Index: 41°   Visibility: 10mi
Dew Point: 40°   Wind: 0mph
Humidity: 94%   Direction: NA
Pressure: 30.31"   Gusts: NA
Location:  29.8725°N, 97.3223°W
Report Text: K3T5 281210Z AUTO 00000KT 10SM CLR 05/04 A3031 RMK AO2 T00510042
Loading
Personal Weather Stations






























Interactive Weather Map New forecast layout! Learn more

10-Day Weather Forecast

Advertisements
Track Severe Weather on mobile